Marquette, Michigan
Current Conditions -  °F | °C
As of 1:17 AM on Saturday 29 Nov 2014 (Local Time) from KSAW Reporting Station
Overcast Overcast  
Wind Chill: 10°   Ceiling: 2400
Heat Index: 20°   Visibility: 10mi
Dew Point: 19°   Wind: 9mph
Humidity: 93%   Direction: 210°SSW
Pressure: 29.81"   Gusts: NA
Location:  46.55°N, 87.41°W
Report Text: KSAW 290617Z AUTO 21008KT 10SM SCT003 BKN024 OVC038 M06/M07 A2981 RMK AO2 T10651075
Loading
Personal Weather Stations






























Interactive Weather Map New forecast layout! Learn more

10-Day Weather Forecast

Advertisements
Track Severe Weather on mobile